sensor_id;sensor_type;location;lat;lon;timestamp;P1;durP1;ratioP1;P2;durP2;ratioP2
78322;SDS011;67583;50.616;-3.404;2023-09-19T00:00:44;13.38;;;2.42;;
78322;SDS011;67583;50.616;-3.404;2023-09-19T00:03:12;8.57;;;2.25;;
78322;SDS011;67583;50.616;-3.404;2023-09-19T00:05:38;15.93;;;2.47;;
78322;SDS011;67583;50.616;-3.404;2023-09-19T00:08:04;13.65;;;2.22;;
78322;SDS011;67583;50.616;-3.404;2023-09-19T00:10:30;8.07;;;1.98;;
78322;SDS011;67583;50.616;-3.404;2023-09-19T00:12:57;10.90;;;2.47;;
78322;SDS011;67583;50.616;-3.404;2023-09-19T00:15:24;8.45;;;2.28;;
78322;SDS011;67583;50.616;-3.404;2023-09-19T00:17:51;12.48;;;2.92;;
78322;SDS011;67583;50.616;-3.404;2023-09-19T00:20:17;12.63;;;2.65;;
78322;SDS011;67583;50.616;-3.404;2023-09-19T00:22:43;7.85;;;2.40;;
78322;SDS011;67583;50.616;-3.404;2023-09-19T00:25:09;7.93;;;2.78;;
78322;SDS011;67583;50.616;-3.404;2023-09-19T00:27:36;10.50;;;2.45;;
78322;SDS011;67583;50.616;-3.404;2023-09-19T00:30:05;9.27;;;2.08;;
78322;SDS011;67583;50.616;-3.404;2023-09-19T00:32:33;8.85;;;1.85;;
78322;SDS011;67583;50.616;-3.404;2023-09-19T00:34:58;16.58;;;3.95;;
78322;SDS011;67583;50.616;-3.404;2023-09-19T00:37:24;13.55;;;3.63;;
78322;SDS011;67583;50.616;-3.404;2023-09-19T00:39:49;8.65;;;2.28;;
78322;SDS011;67583;50.616;-3.404;2023-09-19T00:42:19;9.90;;;2.00;;
78322;SDS011;67583;50.616;-3.404;2023-09-19T00:44:46;10.38;;;2.28;;
78322;SDS011;67583;50.616;-3.404;2023-09-19T00:47:12;10.48;;;2.30;;
78322;SDS011;67583;50.616;-3.404;2023-09-19T00:49:43;14.80;;;2.33;;
78322;SDS011;67583;50.616;-3.404;2023-09-19T00:52:10;11.23;;;2.08;;
78322;SDS011;67583;50.616;-3.404;2023-09-19T00:54:36;9.50;;;2.67;;
78322;SDS011;67583;50.616;-3.404;2023-09-19T00:57:01;5.95;;;1.90;;
78322;SDS011;67583;50.616;-3.404;2023-09-19T00:59:27;11.98;;;2.55;;
78322;SDS011;67583;50.616;-3.404;2023-09-19T01:01:53;10.10;;;2.15;;
78322;SDS011;67583;50.616;-3.404;2023-09-19T01:04:19;11.45;;;2.40;;
78322;SDS011;67583;50.616;-3.404;2023-09-19T01:06:45;8.02;;;2.30;;
78322;SDS011;67583;50.616;-3.404;2023-09-19T01:09:11;9.90;;;2.72;;
78322;SDS011;67583;50.616;-3.404;2023-09-19T01:11:43;10.35;;;2.30;;
78322;SDS011;67583;50.616;-3.404;2023-09-19T01:14:24;9.10;;;2.25;;
78322;SDS011;67583;50.616;-3.404;2023-09-19T01:28:34;8.95;;;2.10;;
78322;SDS011;67583;50.616;-3.404;2023-09-19T01:31:09;7.80;;;1.70;;
78322;SDS011;67583;50.616;-3.404;2023-09-19T01:33:55;4.13;;;1.50;;
78322;SDS011;67583;50.616;-3.404;2023-09-19T01:36:31;13.77;;;2.28;;
78322;SDS011;67583;50.616;-3.404;2023-09-19T01:39:00;12.05;;;2.67;;
78322;SDS011;67583;50.616;-3.404;2023-09-19T01:47:50;10.55;;;2.05;;
78322;SDS011;67583;50.616;-3.404;2023-09-19T01:53:07;5.80;;;2.00;;
78322;SDS011;67583;50.616;-3.404;2023-09-19T01:55:37;6.20;;;1.58;;
78322;SDS011;67583;50.616;-3.404;2023-09-19T01:58:15;7.18;;;1.73;;
78322;SDS011;67583;50.616;-3.404;2023-09-19T02:00:44;5.28;;;1.80;;
78322;SDS011;67583;50.616;-3.404;2023-09-19T02:03:13;7.50;;;1.55;;
78322;SDS011;67583;50.616;-3.404;2023-09-19T02:05:39;7.65;;;2.22;;
78322;SDS011;67583;50.616;-3.404;2023-09-19T02:08:04;5.95;;;1.55;;
78322;SDS011;67583;50.616;-3.404;2023-09-19T02:10:30;6.78;;;1.52;;
78322;SDS011;67583;50.616;-3.404;2023-09-19T02:12:55;7.47;;;1.67;;
78322;SDS011;67583;50.616;-3.404;2023-09-19T02:15:21;6.57;;;1.70;;
78322;SDS011;67583;50.616;-3.404;2023-09-19T02:17:47;11.65;;;2.33;;
78322;SDS011;67583;50.616;-3.404;2023-09-19T02:20:13;11.23;;;2.40;;
78322;SDS011;67583;50.616;-3.404;2023-09-19T02:22:40;11.77;;;2.58;;
78322;SDS011;67583;50.616;-3.404;2023-09-19T02:25:06;5.88;;;1.50;;
78322;SDS011;67583;50.616;-3.404;2023-09-19T02:27:33;7.13;;;1.55;;
78322;SDS011;67583;50.616;-3.404;2023-09-19T02:29:58;6.18;;;1.92;;
78322;SDS011;67583;50.616;-3.404;2023-09-19T02:32:24;12.02;;;2.20;;
78322;SDS011;67583;50.616;-3.404;2023-09-19T02:34:49;4.38;;;1.70;;
78322;SDS011;67583;50.616;-3.404;2023-09-19T02:37:17;7.70;;;1.70;;
78322;SDS011;67583;50.616;-3.404;2023-09-19T02:39:44;8.55;;;1.52;;
78322;SDS011;67583;50.616;-3.404;2023-09-19T02:42:09;2.95;;;1.30;;
78322;SDS011;67583;50.616;-3.404;2023-09-19T02:44:34;8.88;;;1.58;;
78322;SDS011;67583;50.616;-3.404;2023-09-19T02:47:00;6.88;;;1.58;;
78322;SDS011;67583;50.616;-3.404;2023-09-19T02:49:26;6.53;;;1.83;;
78322;SDS011;67583;50.616;-3.404;2023-09-19T02:51:51;5.70;;;1.48;;
78322;SDS011;67583;50.616;-3.404;2023-09-19T02:54:17;5.93;;;1.60;;
78322;SDS011;67583;50.616;-3.404;2023-09-19T02:56:42;5.78;;;2.03;;
78322;SDS011;67583;50.616;-3.404;2023-09-19T02:59:08;8.20;;;1.45;;
78322;SDS011;67583;50.616;-3.404;2023-09-19T03:01:35;7.35;;;1.73;;
78322;SDS011;67583;50.616;-3.404;2023-09-19T03:04:01;6.95;;;1.60;;
78322;SDS011;67583;50.616;-3.404;2023-09-19T03:06:27;6.25;;;2.08;;
78322;SDS011;67583;50.616;-3.404;2023-09-19T03:08:55;7.35;;;1.75;;
78322;SDS011;67583;50.616;-3.404;2023-09-19T03:11:21;4.40;;;1.58;;
78322;SDS011;67583;50.616;-3.404;2023-09-19T03:13:54;14.35;;;2.63;;
78322;SDS011;67583;50.616;-3.404;2023-09-19T03:16:20;7.85;;;2.22;;
78322;SDS011;67583;50.616;-3.404;2023-09-19T03:18:50;8.10;;;1.77;;
78322;SDS011;67583;50.616;-3.404;2023-09-19T03:21:16;7.07;;;1.92;;
78322;SDS011;67583;50.616;-3.404;2023-09-19T03:23:46;6.38;;;2.17;;
78322;SDS011;67583;50.616;-3.404;2023-09-19T03:26:12;6.05;;;1.60;;
78322;SDS011;67583;50.616;-3.404;2023-09-19T03:28:38;5.80;;;1.42;;
78322;SDS011;67583;50.616;-3.404;2023-09-19T03:31:06;6.40;;;1.60;;
78322;SDS011;67583;50.616;-3.404;2023-09-19T03:33:32;5.15;;;1.70;;
78322;SDS011;67583;50.616;-3.404;2023-09-19T03:35:59;9.57;;;1.92;;
78322;SDS011;67583;50.616;-3.404;2023-09-19T03:38:25;15.60;;;2.35;;
78322;SDS011;67583;50.616;-3.404;2023-09-19T03:40:51;11.45;;;2.20;;
78322;SDS011;67583;50.616;-3.404;2023-09-19T03:43:17;5.50;;;2.00;;
78322;SDS011;67583;50.616;-3.404;2023-09-19T03:45:42;8.65;;;1.70;;
78322;SDS011;67583;50.616;-3.404;2023-09-19T03:48:09;6.60;;;2.10;;
78322;SDS011;67583;50.616;-3.404;2023-09-19T03:50:34;2.92;;;1.45;;
78322;SDS011;67583;50.616;-3.404;2023-09-19T03:53:00;10.52;;;2.20;;
78322;SDS011;67583;50.616;-3.404;2023-09-19T03:55:25;8.35;;;2.00;;
78322;SDS011;67583;50.616;-3.404;2023-09-19T03:57:51;7.30;;;1.85;;
78322;SDS011;67583;50.616;-3.404;2023-09-19T04:00:17;20.67;;;2.33;;
78322;SDS011;67583;50.616;-3.404;2023-09-19T04:02:46;6.38;;;2.47;;
78322;SDS011;67583;50.616;-3.404;2023-09-19T04:05:11;6.47;;;2.00;;
78322;SDS011;67583;50.616;-3.404;2023-09-19T04:07:37;11.27;;;2.88;;
78322;SDS011;67583;50.616;-3.404;2023-09-19T04:10:02;9.75;;;2.47;;
78322;SDS011;67583;50.616;-3.404;2023-09-19T04:12:28;9.02;;;2.75;;
78322;SDS011;67583;50.616;-3.404;2023-09-19T04:14:53;6.40;;;2.47;;
78322;SDS011;67583;50.616;-3.404;2023-09-19T04:17:19;10.25;;;2.53;;
78322;SDS011;67583;50.616;-3.404;2023-09-19T04:19:44;6.47;;;2.70;;
78322;SDS011;67583;50.616;-3.404;2023-09-19T04:22:10;12.10;;;2.60;;
78322;SDS011;67583;50.616;-3.404;2023-09-19T04:24:37;5.85;;;2.08;;
78322;SDS011;67583;50.616;-3.404;2023-09-19T04:27:03;8.30;;;2.53;;
78322;SDS011;67583;50.616;-3.404;2023-09-19T04:29:29;7.78;;;2.03;;
78322;SDS011;67583;50.616;-3.404;2023-09-19T04:31:55;6.68;;;1.90;;
78322;SDS011;67583;50.616;-3.404;2023-09-19T04:34:22;6.63;;;2.10;;
78322;SDS011;67583;50.616;-3.404;2023-09-19T04:36:49;10.68;;;2.60;;
78322;SDS011;67583;50.616;-3.404;2023-09-19T04:39:14;6.38;;;1.77;;
78322;SDS011;67583;50.616;-3.404;2023-09-19T04:41:40;7.93;;;2.00;;
78322;SDS011;67583;50.616;-3.404;2023-09-19T04:44:06;9.57;;;3.90;;
78322;SDS011;67583;50.616;-3.404;2023-09-19T04:46:32;8.63;;;2.85;;
78322;SDS011;67583;50.616;-3.404;2023-09-19T04:48:58;10.27;;;2.67;;
78322;SDS011;67583;50.616;-3.404;2023-09-19T04:51:23;7.35;;;2.65;;
78322;SDS011;67583;50.616;-3.404;2023-09-19T04:53:49;14.38;;;3.47;;
78322;SDS011;67583;50.616;-3.404;2023-09-19T04:56:14;13.88;;;2.95;;
78322;SDS011;67583;50.616;-3.404;2023-09-19T04:58:40;22.10;;;4.45;;
78322;SDS011;67583;50.616;-3.404;2023-09-19T05:01:05;9.18;;;2.60;;
78322;SDS011;67583;50.616;-3.404;2023-09-19T05:03:31;10.80;;;3.13;;
78322;SDS011;67583;50.616;-3.404;2023-09-19T05:05:56;15.88;;;4.43;;
78322;SDS011;67583;50.616;-3.404;2023-09-19T05:08:22;17.05;;;3.60;;
78322;SDS011;67583;50.616;-3.404;2023-09-19T05:10:47;10.55;;;2.72;;
78322;SDS011;67583;50.616;-3.404;2023-09-19T05:13:14;21.42;;;4.05;;
78322;SDS011;67583;50.616;-3.404;2023-09-19T05:15:39;14.15;;;3.38;;
78322;SDS011;67583;50.616;-3.404;2023-09-19T05:18:05;14.65;;;3.92;;
78322;SDS011;67583;50.616;-3.404;2023-09-19T05:20:31;20.20;;;3.80;;
78322;SDS011;67583;50.616;-3.404;2023-09-19T05:23:01;14.13;;;4.53;;
78322;SDS011;67583;50.616;-3.404;2023-09-19T05:25:31;11.52;;;3.42;;
78322;SDS011;67583;50.616;-3.404;2023-09-19T05:27:58;16.73;;;4.00;;
78322;SDS011;67583;50.616;-3.404;2023-09-19T05:30:24;18.45;;;4.07;;
78322;SDS011;67583;50.616;-3.404;2023-09-19T05:32:52;20.30;;;4.18;;
78322;SDS011;67583;50.616;-3.404;2023-09-19T05:35:17;16.25;;;3.88;;
78322;SDS011;67583;50.616;-3.404;2023-09-19T05:37:43;12.73;;;3.30;;
78322;SDS011;67583;50.616;-3.404;2023-09-19T05:40:09;21.73;;;5.25;;
78322;SDS011;67583;50.616;-3.404;2023-09-19T05:42:35;23.92;;;4.10;;
78322;SDS011;67583;50.616;-3.404;2023-09-19T05:45:00;18.08;;;4.22;;
78322;SDS011;67583;50.616;-3.404;2023-09-19T05:47:26;22.02;;;4.93;;
78322;SDS011;67583;50.616;-3.404;2023-09-19T05:49:51;23.65;;;5.45;;
78322;SDS011;67583;50.616;-3.404;2023-09-19T05:52:17;17.08;;;4.30;;
78322;SDS011;67583;50.616;-3.404;2023-09-19T05:54:43;16.77;;;4.80;;
78322;SDS011;67583;50.616;-3.404;2023-09-19T05:57:08;16.60;;;4.20;;
78322;SDS011;67583;50.616;-3.404;2023-09-19T05:59:35;24.10;;;5.78;;
78322;SDS011;67583;50.616;-3.404;2023-09-19T06:02:01;18.77;;;4.78;;
78322;SDS011;67583;50.616;-3.404;2023-09-19T06:04:26;17.00;;;5.05;;
78322;SDS011;67583;50.616;-3.404;2023-09-19T06:06:51;15.85;;;4.47;;
78322;SDS011;67583;50.616;-3.404;2023-09-19T06:09:17;14.57;;;4.82;;
78322;SDS011;67583;50.616;-3.404;2023-09-19T06:11:42;19.75;;;4.45;;
78322;SDS011;67583;50.616;-3.404;2023-09-19T06:14:07;20.10;;;4.90;;
78322;SDS011;67583;50.616;-3.404;2023-09-19T06:16:35;22.10;;;4.30;;
78322;SDS011;67583;50.616;-3.404;2023-09-19T06:19:01;19.35;;;4.95;;
78322;SDS011;67583;50.616;-3.404;2023-09-19T06:21:27;20.33;;;4.68;;
78322;SDS011;67583;50.616;-3.404;2023-09-19T06:23:53;17.20;;;4.25;;
78322;SDS011;67583;50.616;-3.404;2023-09-19T06:26:18;23.50;;;4.88;;
78322;SDS011;67583;50.616;-3.404;2023-09-19T06:28:44;14.77;;;4.53;;
78322;SDS011;67583;50.616;-3.404;2023-09-19T06:31:10;21.20;;;4.93;;
78322;SDS011;67583;50.616;-3.404;2023-09-19T06:33:36;20.55;;;5.22;;
78322;SDS011;67583;50.616;-3.404;2023-09-19T06:36:05;13.82;;;4.35;;
78322;SDS011;67583;50.616;-3.404;2023-09-19T06:38:31;15.63;;;4.35;;
78322;SDS011;67583;50.616;-3.404;2023-09-19T06:40:59;24.05;;;5.07;;
78322;SDS011;67583;50.616;-3.404;2023-09-19T06:43:24;17.60;;;5.05;;
78322;SDS011;67583;50.616;-3.404;2023-09-19T06:45:50;22.30;;;4.30;;
78322;SDS011;67583;50.616;-3.404;2023-09-19T06:48:16;16.92;;;6.15;;
78322;SDS011;67583;50.616;-3.404;2023-09-19T06:50:43;20.83;;;5.10;;
78322;SDS011;67583;50.616;-3.404;2023-09-19T06:53:09;20.95;;;6.13;;
78322;SDS011;67583;50.616;-3.404;2023-09-19T06:55:35;19.90;;;4.93;;
78322;SDS011;67583;50.616;-3.404;2023-09-19T06:58:01;22.55;;;4.68;;
78322;SDS011;67583;50.616;-3.404;2023-09-19T07:00:27;27.73;;;5.55;;
78322;SDS011;67583;50.616;-3.404;2023-09-19T07:02:59;28.48;;;5.82;;
78322;SDS011;67583;50.616;-3.404;2023-09-19T07:05:29;22.00;;;5.57;;
78322;SDS011;67583;50.616;-3.404;2023-09-19T07:07:56;24.58;;;4.97;;
78322;SDS011;67583;50.616;-3.404;2023-09-19T07:10:23;21.73;;;5.15;;
78322;SDS011;67583;50.616;-3.404;2023-09-19T07:12:59;17.80;;;4.82;;
78322;SDS011;67583;50.616;-3.404;2023-09-19T07:15:25;23.60;;;5.30;;
78322;SDS011;67583;50.616;-3.404;2023-09-19T07:17:54;19.65;;;4.60;;
78322;SDS011;67583;50.616;-3.404;2023-09-19T07:20:21;19.38;;;4.63;;
78322;SDS011;67583;50.616;-3.404;2023-09-19T07:22:48;17.13;;;5.00;;
78322;SDS011;67583;50.616;-3.404;2023-09-19T07:25:15;24.20;;;4.70;;
78322;SDS011;67583;50.616;-3.404;2023-09-19T07:27:41;17.00;;;5.70;;
78322;SDS011;67583;50.616;-3.404;2023-09-19T07:30:07;25.48;;;5.63;;
78322;SDS011;67583;50.616;-3.404;2023-09-19T07:32:34;16.50;;;4.90;;
78322;SDS011;67583;50.616;-3.404;2023-09-19T07:35:01;18.20;;;5.25;;
78322;SDS011;67583;50.616;-3.404;2023-09-19T07:37:28;26.67;;;5.03;;
78322;SDS011;67583;50.616;-3.404;2023-09-19T07:39:56;18.35;;;6.07;;
78322;SDS011;67583;50.616;-3.404;2023-09-19T07:42:21;21.85;;;4.82;;
78322;SDS011;67583;50.616;-3.404;2023-09-19T07:44:47;19.25;;;6.05;;
78322;SDS011;67583;50.616;-3.404;2023-09-19T07:47:15;24.58;;;4.85;;
78322;SDS011;67583;50.616;-3.404;2023-09-19T07:49:41;23.02;;;6.03;;
78322;SDS011;67583;50.616;-3.404;2023-09-19T07:52:07;17.30;;;5.25;;
78322;SDS011;67583;50.616;-3.404;2023-09-19T07:54:35;23.52;;;5.32;;
78322;SDS011;67583;50.616;-3.404;2023-09-19T07:57:03;29.15;;;6.65;;
78322;SDS011;67583;50.616;-3.404;2023-09-19T07:59:29;23.40;;;5.93;;
78322;SDS011;67583;50.616;-3.404;2023-09-19T08:01:54;13.90;;;4.78;;
78322;SDS011;67583;50.616;-3.404;2023-09-19T08:04:20;17.73;;;5.80;;
78322;SDS011;67583;50.616;-3.404;2023-09-19T08:06:45;23.27;;;4.85;;
78322;SDS011;67583;50.616;-3.404;2023-09-19T08:09:11;23.95;;;5.55;;
78322;SDS011;67583;50.616;-3.404;2023-09-19T08:11:39;26.92;;;6.30;;
78322;SDS011;67583;50.616;-3.404;2023-09-19T08:14:04;21.63;;;6.65;;
78322;SDS011;67583;50.616;-3.404;2023-09-19T08:16:33;28.60;;;6.40;;
78322;SDS011;67583;50.616;-3.404;2023-09-19T08:18:58;17.48;;;4.63;;
78322;SDS011;67583;50.616;-3.404;2023-09-19T08:21:24;22.92;;;5.63;;
78322;SDS011;67583;50.616;-3.404;2023-09-19T08:23:50;16.05;;;4.32;;
78322;SDS011;67583;50.616;-3.404;2023-09-19T08:26:16;16.80;;;3.80;;
78322;SDS011;67583;50.616;-3.404;2023-09-19T08:28:41;16.38;;;4.18;;
78322;SDS011;67583;50.616;-3.404;2023-09-19T08:31:07;13.85;;;3.65;;
78322;SDS011;67583;50.616;-3.404;2023-09-19T08:33:34;17.40;;;4.13;;
78322;SDS011;67583;50.616;-3.404;2023-09-19T08:36:00;13.13;;;3.88;;
78322;SDS011;67583;50.616;-3.404;2023-09-19T08:38:30;12.80;;;4.57;;
78322;SDS011;67583;50.616;-3.404;2023-09-19T08:40:58;14.43;;;4.10;;
78322;SDS011;67583;50.616;-3.404;2023-09-19T08:43:24;15.63;;;4.63;;
78322;SDS011;67583;50.616;-3.404;2023-09-19T08:45:51;13.52;;;3.97;;
78322;SDS011;67583;50.616;-3.404;2023-09-19T08:53:27;14.82;;;4.35;;
78322;SDS011;67583;50.616;-3.404;2023-09-19T08:55:55;8.02;;;3.88;;
78322;SDS011;67583;50.616;-3.404;2023-09-19T08:58:23;16.20;;;3.63;;
78322;SDS011;67583;50.616;-3.404;2023-09-19T09:00:53;14.40;;;3.80;;
78322;SDS011;67583;50.616;-3.404;2023-09-19T09:03:19;15.73;;;3.67;;
78322;SDS011;67583;50.616;-3.404;2023-09-19T09:05:46;11.32;;;4.47;;
78322;SDS011;67583;50.616;-3.404;2023-09-19T09:08:13;12.15;;;3.53;;
78322;SDS011;67583;50.616;-3.404;2023-09-19T09:10:39;17.83;;;4.82;;
78322;SDS011;67583;50.616;-3.404;2023-09-19T09:13:05;13.90;;;3.13;;
78322;SDS011;67583;50.616;-3.404;2023-09-19T09:15:35;13.52;;;4.65;;
78322;SDS011;67583;50.616;-3.404;2023-09-19T09:18:02;12.52;;;3.80;;
78322;SDS011;67583;50.616;-3.404;2023-09-19T09:20:28;16.45;;;4.18;;
78322;SDS011;67583;50.616;-3.404;2023-09-19T09:22:54;9.40;;;2.92;;
78322;SDS011;67583;50.616;-3.404;2023-09-19T09:25:21;8.48;;;2.67;;
78322;SDS011;67583;50.616;-3.404;2023-09-19T09:28:02;12.45;;;3.90;;
78322;SDS011;67583;50.616;-3.404;2023-09-19T09:30:34;5.97;;;2.85;;
78322;SDS011;67583;50.616;-3.404;2023-09-19T09:33:11;7.50;;;2.40;;
78322;SDS011;67583;50.616;-3.404;2023-09-19T09:35:54;5.88;;;2.72;;
78322;SDS011;67583;50.616;-3.404;2023-09-19T09:38:28;9.95;;;2.65;;
78322;SDS011;67583;50.616;-3.404;2023-09-19T09:41:15;9.88;;;3.28;;
78322;SDS011;67583;50.616;-3.404;2023-09-19T09:43:52;10.63;;;2.83;;
78322;SDS011;67583;50.616;-3.404;2023-09-19T09:46:18;7.32;;;2.15;;
78322;SDS011;67583;50.616;-3.404;2023-09-19T09:49:10;7.53;;;2.72;;
78322;SDS011;67583;50.616;-3.404;2023-09-19T09:51:39;9.18;;;2.75;;
78322;SDS011;67583;50.616;-3.404;2023-09-19T09:54:13;8.20;;;2.38;;
78322;SDS011;67583;50.616;-3.404;2023-09-19T09:57:01;6.68;;;2.83;;
78322;SDS011;67583;50.616;-3.404;2023-09-19T10:02:52;8.27;;;1.92;;
78322;SDS011;67583;50.616;-3.404;2023-09-19T10:05:18;8.57;;;2.13;;
78322;SDS011;67583;50.616;-3.404;2023-09-19T10:07:53;8.20;;;2.75;;
78322;SDS011;67583;50.616;-3.404;2023-09-19T10:10:35;8.07;;;2.08;;
78322;SDS011;67583;50.616;-3.404;2023-09-19T10:13:04;6.50;;;2.38;;
78322;SDS011;67583;50.616;-3.404;2023-09-19T10:15:33;8.38;;;1.77;;
78322;SDS011;67583;50.616;-3.404;2023-09-19T10:18:04;5.68;;;1.80;;
78322;SDS011;67583;50.616;-3.404;2023-09-19T10:20:30;5.15;;;1.90;;
78322;SDS011;67583;50.616;-3.404;2023-09-19T10:22:55;6.68;;;2.00;;
78322;SDS011;67583;50.616;-3.404;2023-09-19T10:25:27;4.72;;;2.10;;
78322;SDS011;67583;50.616;-3.404;2023-09-19T10:27:54;5.15;;;2.00;;
78322;SDS011;67583;50.616;-3.404;2023-09-19T10:30:25;7.22;;;3.78;;
78322;SDS011;67583;50.616;-3.404;2023-09-19T10:32:55;5.70;;;1.58;;
78322;SDS011;67583;50.616;-3.404;2023-09-19T10:35:23;5.53;;;1.98;;
78322;SDS011;67583;50.616;-3.404;2023-09-19T10:37:49;8.10;;;2.38;;
78322;SDS011;67583;50.616;-3.404;2023-09-19T10:40:16;5.00;;;2.10;;
78322;SDS011;67583;50.616;-3.404;2023-09-19T10:42:42;7.63;;;2.10;;
78322;SDS011;67583;50.616;-3.404;2023-09-19T10:45:09;8.23;;;2.13;;
78322;SDS011;67583;50.616;-3.404;2023-09-19T10:47:38;3.70;;;1.98;;
78322;SDS011;67583;50.616;-3.404;2023-09-19T10:50:05;8.95;;;2.00;;
78322;SDS011;67583;50.616;-3.404;2023-09-19T10:52:32;6.25;;;2.10;;
78322;SDS011;67583;50.616;-3.404;2023-09-19T10:54:59;9.95;;;2.80;;
78322;SDS011;67583;50.616;-3.404;2023-09-19T10:57:26;9.32;;;2.70;;
78322;SDS011;67583;50.616;-3.404;2023-09-19T11:00:03;7.13;;;2.10;;
78322;SDS011;67583;50.616;-3.404;2023-09-19T11:05:36;5.93;;;1.80;;
78322;SDS011;67583;50.616;-3.404;2023-09-19T11:08:05;4.72;;;2.58;;
78322;SDS011;67583;50.616;-3.404;2023-09-19T11:10:50;6.07;;;2.33;;
78322;SDS011;67583;50.616;-3.404;2023-09-19T11:13:29;7.93;;;2.40;;
78322;SDS011;67583;50.616;-3.404;2023-09-19T11:26:41;8.32;;;2.63;;
78322;SDS011;67583;50.616;-3.404;2023-09-19T11:29:28;10.20;;;2.78;;
78322;SDS011;67583;50.616;-3.404;2023-09-19T11:31:57;7.97;;;3.33;;
78322;SDS011;67583;50.616;-3.404;2023-09-19T11:40:09;7.32;;;2.83;;
78322;SDS011;67583;50.616;-3.404;2023-09-19T11:42:45;8.35;;;3.15;;
78322;SDS011;67583;50.616;-3.404;2023-09-19T11:48:11;7.45;;;2.15;;
78322;SDS011;67583;50.616;-3.404;2023-09-19T11:50:40;7.43;;;2.05;;
78322;SDS011;67583;50.616;-3.404;2023-09-19T11:53:09;8.05;;;2.50;;
78322;SDS011;67583;50.616;-3.404;2023-09-19T11:55:43;8.13;;;2.45;;
78322;SDS011;67583;50.616;-3.404;2023-09-19T11:58:09;7.03;;;2.47;;
78322;SDS011;67583;50.616;-3.404;2023-09-19T12:00:37;5.72;;;2.28;;
78322;SDS011;67583;50.616;-3.404;2023-09-19T12:03:07;10.52;;;3.95;;
78322;SDS011;67583;50.616;-3.404;2023-09-19T12:05:34;8.30;;;2.50;;
78322;SDS011;67583;50.616;-3.404;2023-09-19T12:08:00;12.40;;;2.67;;
78322;SDS011;67583;50.616;-3.404;2023-09-19T12:10:29;5.40;;;2.28;;
78322;SDS011;67583;50.616;-3.404;2023-09-19T12:12:54;9.90;;;2.40;;
78322;SDS011;67583;50.616;-3.404;2023-09-19T12:15:25;8.10;;;2.38;;
78322;SDS011;67583;50.616;-3.404;2023-09-19T12:17:53;5.63;;;2.22;;
78322;SDS011;67583;50.616;-3.404;2023-09-19T12:20:22;8.20;;;2.40;;
78322;SDS011;67583;50.616;-3.404;2023-09-19T12:22:48;6.28;;;1.85;;
78322;SDS011;67583;50.616;-3.404;2023-09-19T12:30:27;4.68;;;2.00;;
78322;SDS011;67583;50.616;-3.404;2023-09-19T12:33:03;6.78;;;2.60;;
78322;SDS011;67583;50.616;-3.404;2023-09-19T12:35:30;7.18;;;2.50;;
78322;SDS011;67583;50.616;-3.404;2023-09-19T12:37:59;8.82;;;2.08;;
78322;SDS011;67583;50.616;-3.404;2023-09-19T12:40:25;6.05;;;2.40;;
78322;SDS011;67583;50.616;-3.404;2023-09-19T12:42:53;7.07;;;2.20;;
78322;SDS011;67583;50.616;-3.404;2023-09-19T12:45:20;6.70;;;2.38;;
78322;SDS011;67583;50.616;-3.404;2023-09-19T12:50:58;9.77;;;2.28;;
78322;SDS011;67583;50.616;-3.404;2023-09-19T12:53:45;5.95;;;1.85;;
78322;SDS011;67583;50.616;-3.404;2023-09-19T12:56:14;11.90;;;2.85;;
78322;SDS011;67583;50.616;-3.404;2023-09-19T12:58:53;8.75;;;2.55;;
78322;SDS011;67583;50.616;-3.404;2023-09-19T13:01:26;9.60;;;2.55;;
78322;SDS011;67583;50.616;-3.404;2023-09-19T13:06:57;8.63;;;2.42;;
78322;SDS011;67583;50.616;-3.404;2023-09-19T13:09:26;8.82;;;2.53;;
78322;SDS011;67583;50.616;-3.404;2023-09-19T13:11:59;8.15;;;2.67;;
78322;SDS011;67583;50.616;-3.404;2023-09-19T13:14:30;8.23;;;2.90;;
78322;SDS011;67583;50.616;-3.404;2023-09-19T13:17:08;11.13;;;2.78;;
78322;SDS011;67583;50.616;-3.404;2023-09-19T13:19:48;11.10;;;2.60;;
78322;SDS011;67583;50.616;-3.404;2023-09-19T13:25:25;9.98;;;3.03;;
78322;SDS011;67583;50.616;-3.404;2023-09-19T13:27:58;7.82;;;2.83;;
78322;SDS011;67583;50.616;-3.404;2023-09-19T13:30:25;11.07;;;2.35;;
78322;SDS011;67583;50.616;-3.404;2023-09-19T13:32:52;7.10;;;2.63;;
78322;SDS011;67583;50.616;-3.404;2023-09-19T13:35:28;10.20;;;2.90;;
78322;SDS011;67583;50.616;-3.404;2023-09-19T13:37:54;13.80;;;3.17;;
78322;SDS011;67583;50.616;-3.404;2023-09-19T13:40:19;11.68;;;3.30;;
78322;SDS011;67583;50.616;-3.404;2023-09-19T13:42:45;13.57;;;3.50;;
78322;SDS011;67583;50.616;-3.404;2023-09-19T13:45:10;10.10;;;2.63;;
78322;SDS011;67583;50.616;-3.404;2023-09-19T13:47:37;11.10;;;3.03;;
78322;SDS011;67583;50.616;-3.404;2023-09-19T13:50:03;10.38;;;3.13;;
78322;SDS011;67583;50.616;-3.404;2023-09-19T13:52:30;12.63;;;3.55;;
78322;SDS011;67583;50.616;-3.404;2023-09-19T13:54:56;11.45;;;3.60;;
78322;SDS011;67583;50.616;-3.404;2023-09-19T13:57:25;11.60;;;3.15;;
78322;SDS011;67583;50.616;-3.404;2023-09-19T13:59:51;12.80;;;2.83;;
78322;SDS011;67583;50.616;-3.404;2023-09-19T14:02:17;10.63;;;3.08;;
78322;SDS011;67583;50.616;-3.404;2023-09-19T14:04:43;7.88;;;2.63;;
78322;SDS011;67583;50.616;-3.404;2023-09-19T14:07:11;4.03;;;2.08;;
78322;SDS011;67583;50.616;-3.404;2023-09-19T14:09:37;8.70;;;2.42;;
78322;SDS011;67583;50.616;-3.404;2023-09-19T14:12:03;4.40;;;2.17;;
78322;SDS011;67583;50.616;-3.404;2023-09-19T14:14:28;5.03;;;2.25;;
78322;SDS011;67583;50.616;-3.404;2023-09-19T14:16:54;6.65;;;1.98;;
78322;SDS011;67583;50.616;-3.404;2023-09-19T14:19:20;3.70;;;1.67;;
78322;SDS011;67583;50.616;-3.404;2023-09-19T14:21:45;8.63;;;2.25;;
78322;SDS011;67583;50.616;-3.404;2023-09-19T14:24:11;9.15;;;2.08;;
78322;SDS011;67583;50.616;-3.404;2023-09-19T14:26:41;5.05;;;1.92;;
78322;SDS011;67583;50.616;-3.404;2023-09-19T14:29:07;7.32;;;2.63;;
78322;SDS011;67583;50.616;-3.404;2023-09-19T14:31:33;11.73;;;2.95;;
78322;SDS011;67583;50.616;-3.404;2023-09-19T14:33:59;7.18;;;2.22;;
78322;SDS011;67583;50.616;-3.404;2023-09-19T14:36:25;4.88;;;2.20;;
78322;SDS011;67583;50.616;-3.404;2023-09-19T14:38:54;6.70;;;1.60;;
78322;SDS011;67583;50.616;-3.404;2023-09-19T14:41:20;5.60;;;2.20;;
78322;SDS011;67583;50.616;-3.404;2023-09-19T14:43:46;8.73;;;2.13;;
78322;SDS011;67583;50.616;-3.404;2023-09-19T14:46:12;7.22;;;2.03;;
78322;SDS011;67583;50.616;-3.404;2023-09-19T14:48:37;8.40;;;1.80;;
78322;SDS011;67583;50.616;-3.404;2023-09-19T14:51:04;10.60;;;2.65;;
78322;SDS011;67583;50.616;-3.404;2023-09-19T14:53:33;6.43;;;1.95;;
78322;SDS011;67583;50.616;-3.404;2023-09-19T14:56:02;8.25;;;2.03;;
78322;SDS011;67583;50.616;-3.404;2023-09-19T15:01:05;7.22;;;2.33;;
78322;SDS011;67583;50.616;-3.404;2023-09-19T15:03:32;5.97;;;1.85;;
78322;SDS011;67583;50.616;-3.404;2023-09-19T15:06:03;5.20;;;2.28;;
78322;SDS011;67583;50.616;-3.404;2023-09-19T15:08:30;4.68;;;1.80;;
78322;SDS011;67583;50.616;-3.404;2023-09-19T15:10:56;8.45;;;2.42;;
78322;SDS011;67583;50.616;-3.404;2023-09-19T15:13:23;9.68;;;2.30;;
78322;SDS011;67583;50.616;-3.404;2023-09-19T15:16:04;10.52;;;2.53;;
78322;SDS011;67583;50.616;-3.404;2023-09-19T15:18:33;7.30;;;3.63;;
78322;SDS011;67583;50.616;-3.404;2023-09-19T15:21:05;8.52;;;2.05;;
78322;SDS011;67583;50.616;-3.404;2023-09-19T15:23:32;15.73;;;2.60;;
78322;SDS011;67583;50.616;-3.404;2023-09-19T15:26:02;6.85;;;1.90;;
78322;SDS011;67583;50.616;-3.404;2023-09-19T15:28:31;6.88;;;1.90;;
78322;SDS011;67583;50.616;-3.404;2023-09-19T15:31:02;6.35;;;2.10;;
78322;SDS011;67583;50.616;-3.404;2023-09-19T15:33:31;4.90;;;2.13;;
78322;SDS011;67583;50.616;-3.404;2023-09-19T15:36:01;6.07;;;2.45;;
78322;SDS011;67583;50.616;-3.404;2023-09-19T15:41:22;5.85;;;2.50;;
78322;SDS011;67583;50.616;-3.404;2023-09-19T15:43:48;10.35;;;2.85;;